sensor_id;sensor_type;location;lat;lon;timestamp;pressure;altitude;pressure_sealevel;temperature;humidity
37206;BME280;23099;42.636;23.198;2023-07-29T00:01:13;91950.81;;;16.23;74.30
37206;BME280;23099;42.636;23.198;2023-07-29T00:03:39;91960.47;;;16.20;74.07
37206;BME280;23099;42.636;23.198;2023-07-29T00:06:06;91956.66;;;16.14;74.44
37206;BME280;23099;42.636;23.198;2023-07-29T00:08:34;91961.63;;;16.16;74.60
37206;BME280;23099;42.636;23.198;2023-07-29T00:11:01;91957.38;;;16.18;73.88
37206;BME280;23099;42.636;23.198;2023-07-29T00:13:28;91961.63;;;16.19;74.03
37206;BME280;23099;42.636;23.198;2023-07-29T00:15:54;91959.72;;;16.16;73.97
37206;BME280;23099;42.636;23.198;2023-07-29T00:18:22;91956.38;;;15.98;74.32
37206;BME280;23099;42.636;23.198;2023-07-29T00:20:48;91952.94;;;15.94;74.74
37206;BME280;23099;42.636;23.198;2023-07-29T00:23:17;91953.34;;;15.89;75.96
37206;BME280;23099;42.636;23.198;2023-07-29T00:25:45;91953.72;;;15.87;75.69
37206;BME280;23099;42.636;23.198;2023-07-29T00:28:12;91946.03;;;15.89;76.25
37206;BME280;23099;42.636;23.198;2023-07-29T00:30:39;91939.53;;;15.80;75.80
37206;BME280;23099;42.636;23.198;2023-07-29T00:33:06;91935.31;;;15.79;76.41
37206;BME280;23099;42.636;23.198;2023-07-29T00:35:33;91934.53;;;15.82;76.70
37206;BME280;23099;42.636;23.198;2023-07-29T00:37:59;91936.44;;;15.85;76.11
37206;BME280;23099;42.636;23.198;2023-07-29T00:40:28;91936.44;;;15.85;76.17
37206;BME280;23099;42.636;23.198;2023-07-29T00:42:56;91933.38;;;15.79;75.76
37206;BME280;23099;42.636;23.198;2023-07-29T00:45:23;91931.84;;;15.75;76.17
37206;BME280;23099;42.636;23.198;2023-07-29T00:47:51;91929.59;;;15.70;76.67
37206;BME280;23099;42.636;23.198;2023-07-29T00:50:18;91938.47;;;15.67;77.26
37206;BME280;23099;42.636;23.198;2023-07-29T00:52:44;91939.63;;;15.66;77.36
37206;BME280;23099;42.636;23.198;2023-07-29T00:55:11;91931.53;;;15.62;77.45
37206;BME280;23099;42.636;23.198;2023-07-29T00:57:38;91926.56;;;15.53;77.92
37206;BME280;23099;42.636;23.198;2023-07-29T01:00:08;91930.03;;;15.50;78.08
37206;BME280;23099;42.636;23.198;2023-07-29T01:02:36;91934.28;;;15.44;78.44
37206;BME280;23099;42.636;23.198;2023-07-29T01:05:03;91926.22;;;15.44;78.97
37206;BME280;23099;42.636;23.198;2023-07-29T01:07:35;91923.56;;;15.37;79.02
37206;BME280;23099;42.636;23.198;2023-07-29T01:10:12;91928.13;;;15.44;78.83
37206;BME280;23099;42.636;23.198;2023-07-29T01:12:45;91913.50;;;15.45;79.08
37206;BME280;23099;42.636;23.198;2023-07-29T01:15:19;91925.81;;;15.46;78.72
37206;BME280;23099;42.636;23.198;2023-07-29T01:17:53;91931.56;;;15.51;78.43
37206;BME280;23099;42.636;23.198;2023-07-29T01:20:23;91923.13;;;15.49;78.44
37206;BME280;23099;42.636;23.198;2023-07-29T01:22:50;91920.81;;;15.44;79.20
37206;BME280;23099;42.636;23.198;2023-07-29T01:25:18;91925.44;;;15.44;78.75
37206;BME280;23099;42.636;23.198;2023-07-29T01:27:47;91919.69;;;15.42;78.69
37206;BME280;23099;42.636;23.198;2023-07-29T01:30:13;91916.63;;;15.43;78.64
37206;BME280;23099;42.636;23.198;2023-07-29T01:32:49;91924.69;;;15.43;78.86
37206;BME280;23099;42.636;23.198;2023-07-29T01:35:23;91920.06;;;15.44;78.89
37206;BME280;23099;42.636;23.198;2023-07-29T01:37:55;91924.28;;;15.45;78.76
37206;BME280;23099;42.636;23.198;2023-07-29T01:40:26;91925.88;;;15.39;79.45
37206;BME280;23099;42.636;23.198;2023-07-29T01:42:53;91920.09;;;15.37;78.95
37206;BME280;23099;42.636;23.198;2023-07-29T01:45:23;91924.72;;;15.40;78.80
37206;BME280;23099;42.636;23.198;2023-07-29T01:47:51;91922.41;;;15.42;78.92
37206;BME280;23099;42.636;23.198;2023-07-29T01:50:18;91921.63;;;15.41;79.45
37206;BME280;23099;42.636;23.198;2023-07-29T01:52:44;91919.69;;;15.42;79.56
37206;BME280;23099;42.636;23.198;2023-07-29T01:55:11;91927.41;;;15.40;79.48
37206;BME280;23099;42.636;23.198;2023-07-29T01:57:39;91930.88;;;15.40;79.40
37206;BME280;23099;42.636;23.198;2023-07-29T02:00:07;91920.47;;;15.39;80.17
37206;BME280;23099;42.636;23.198;2023-07-29T02:02:34;91922.41;;;15.35;79.64
37206;BME280;23099;42.636;23.198;2023-07-29T02:05:01;91919.72;;;15.35;79.63
37206;BME280;23099;42.636;23.198;2023-07-29T02:07:27;91923.97;;;15.32;79.57
37206;BME280;23099;42.636;23.198;2023-07-29T02:09:54;91921.66;;;15.31;79.83
37206;BME280;23099;42.636;23.198;2023-07-29T02:12:21;91926.69;;;15.29;79.80
37206;BME280;23099;42.636;23.198;2023-07-29T02:14:49;91925.91;;;15.25;79.62
37206;BME280;23099;42.636;23.198;2023-07-29T02:17:16;91926.31;;;15.23;79.95
37206;BME280;23099;42.636;23.198;2023-07-29T02:19:43;91923.28;;;15.14;80.65
37206;BME280;23099;42.636;23.198;2023-07-29T02:22:12;91920.97;;;15.05;81.08
37206;BME280;23099;42.636;23.198;2023-07-29T02:24:39;91929.81;;;15.02;81.49
37206;BME280;23099;42.636;23.198;2023-07-29T02:27:06;91926.41;;;14.95;81.87
37206;BME280;23099;42.636;23.198;2023-07-29T02:29:33;91927.56;;;14.86;82.31
37206;BME280;23099;42.636;23.198;2023-07-29T02:32:01;91923.72;;;14.88;82.18
37206;BME280;23099;42.636;23.198;2023-07-29T02:34:27;91918.72;;;14.90;82.28
37206;BME280;23099;42.636;23.198;2023-07-29T02:36:54;91912.94;;;14.95;82.34
37206;BME280;23099;42.636;23.198;2023-07-29T02:39:21;91913.31;;;14.97;82.07
37206;BME280;23099;42.636;23.198;2023-07-29T02:41:48;91919.09;;;14.92;82.38
37206;BME280;23099;42.636;23.198;2023-07-29T02:44:15;91919.88;;;14.89;82.04
37206;BME280;23099;42.636;23.198;2023-07-29T02:46:42;91917.97;;;14.75;82.59
37206;BME280;23099;42.636;23.198;2023-07-29T02:49:10;91917.25;;;14.71;83.02
37206;BME280;23099;42.636;23.198;2023-07-29T02:51:36;91922.22;;;14.62;83.46
37206;BME280;23099;42.636;23.198;2023-07-29T02:54:03;91925.72;;;14.48;84.53
37206;BME280;23099;42.636;23.198;2023-07-29T02:56:30;91924.94;;;14.47;84.85
37206;BME280;23099;42.636;23.198;2023-07-29T02:58:57;91925.31;;;14.49;84.93
37206;BME280;23099;42.636;23.198;2023-07-29T03:01:23;91933.00;;;14.55;85.22
37206;BME280;23099;42.636;23.198;2023-07-29T03:03:51;91933.41;;;14.53;84.90
37206;BME280;23099;42.636;23.198;2023-07-29T03:06:19;91943.38;;;14.45;85.31
37206;BME280;23099;42.636;23.198;2023-07-29T03:08:46;91938.00;;;14.45;85.78
37206;BME280;23099;42.636;23.198;2023-07-29T03:11:14;91934.53;;;14.52;85.37
37206;BME280;23099;42.636;23.198;2023-07-29T03:13:40;91933.00;;;14.55;85.49
37206;BME280;23099;42.636;23.198;2023-07-29T03:16:08;91938.75;;;14.60;85.52
37206;BME280;23099;42.636;23.198;2023-07-29T03:18:35;91940.28;;;14.61;85.11
37206;BME280;23099;42.636;23.198;2023-07-29T03:21:02;91942.22;;;14.61;85.48
37206;BME280;23099;42.636;23.198;2023-07-29T03:23:31;91947.19;;;14.59;85.48
37206;BME280;23099;42.636;23.198;2023-07-29T03:25:59;91946.06;;;14.63;85.99
37206;BME280;23099;42.636;23.198;2023-07-29T03:28:27;91941.06;;;14.65;85.75
37206;BME280;23099;42.636;23.198;2023-07-29T03:30:55;91936.44;;;14.69;85.33
37206;BME280;23099;42.636;23.198;2023-07-29T03:33:22;91931.44;;;14.68;85.41
37206;BME280;23099;42.636;23.198;2023-07-29T03:35:48;91937.97;;;14.74;85.18
37206;BME280;23099;42.636;23.198;2023-07-29T03:38:15;91937.19;;;14.77;84.79
37206;BME280;23099;42.636;23.198;2023-07-29T03:40:43;91924.50;;;14.81;84.31
37206;BME280;23099;42.636;23.198;2023-07-29T03:43:10;91927.19;;;14.81;84.68
37206;BME280;23099;42.636;23.198;2023-07-29T03:45:37;91931.03;;;14.76;85.07
37206;BME280;23099;42.636;23.198;2023-07-29T03:48:04;91924.13;;;14.79;84.85
37206;BME280;23099;42.636;23.198;2023-07-29T03:50:33;91923.75;;;14.80;84.33
37206;BME280;23099;42.636;23.198;2023-07-29T03:53:00;91930.28;;;14.79;84.44
37206;BME280;23099;42.636;23.198;2023-07-29T03:55:27;91936.81;;;14.82;84.60
37206;BME280;23099;42.636;23.198;2023-07-29T03:57:56;91930.66;;;14.78;84.47
37206;BME280;23099;42.636;23.198;2023-07-29T04:00:23;91926.84;;;14.65;85.45
37206;BME280;23099;42.636;23.198;2023-07-29T04:02:50;91927.63;;;14.65;85.79
37206;BME280;23099;42.636;23.198;2023-07-29T04:05:17;91933.00;;;14.62;86.07
37206;BME280;23099;42.636;23.198;2023-07-29T04:07:44;91936.06;;;14.67;86.13
37206;BME280;23099;42.636;23.198;2023-07-29T04:10:11;91936.84;;;14.64;86.80
37206;BME280;23099;42.636;23.198;2023-07-29T04:12:37;91936.84;;;14.68;85.99
37206;BME280;23099;42.636;23.198;2023-07-29T04:15:07;91927.63;;;14.69;86.47
37206;BME280;23099;42.636;23.198;2023-07-29T04:17:33;91933.75;;;14.66;86.99
37206;BME280;23099;42.636;23.198;2023-07-29T04:20:00;91929.91;;;14.67;87.47
37206;BME280;23099;42.636;23.198;2023-07-29T04:22:28;91936.44;;;14.66;87.32
37206;BME280;23099;42.636;23.198;2023-07-29T04:24:54;91941.44;;;14.67;87.39
37206;BME280;23099;42.636;23.198;2023-07-29T04:27:21;91935.31;;;14.70;87.53
37206;BME280;23099;42.636;23.198;2023-07-29T04:29:48;91939.50;;;14.75;87.36
37206;BME280;23099;42.636;23.198;2023-07-29T04:32:16;91936.03;;;14.81;87.27
37206;BME280;23099;42.636;23.198;2023-07-29T04:34:42;91927.59;;;14.83;87.10
37206;BME280;23099;42.636;23.198;2023-07-29T04:37:09;91940.25;;;14.97;86.93
37206;BME280;23099;42.636;23.198;2023-07-29T04:39:36;91942.91;;;15.04;86.96
37206;BME280;23099;42.636;23.198;2023-07-29T04:42:03;91942.50;;;15.09;87.24
37206;BME280;23099;42.636;23.198;2023-07-29T04:44:30;91936.31;;;15.19;87.32
37206;BME280;23099;42.636;23.198;2023-07-29T04:46:56;91942.06;;;15.28;86.40
37206;BME280;23099;42.636;23.198;2023-07-29T04:49:25;91945.50;;;15.36;85.58
37206;BME280;23099;42.636;23.198;2023-07-29T04:51:51;91945.06;;;15.44;86.30
37206;BME280;23099;42.636;23.198;2023-07-29T04:54:18;91949.66;;;15.54;85.22
37206;BME280;23099;42.636;23.198;2023-07-29T04:56:46;91953.09;;;15.59;85.11
37206;BME280;23099;42.636;23.198;2023-07-29T04:59:12;91956.94;;;15.65;85.52
37206;BME280;23099;42.636;23.198;2023-07-29T05:01:39;91955.78;;;15.69;84.62
37206;BME280;23099;42.636;23.198;2023-07-29T05:04:07;91964.97;;;15.75;84.14
37206;BME280;23099;42.636;23.198;2023-07-29T05:06:35;91956.09;;;15.78;83.83
37206;BME280;23099;42.636;23.198;2023-07-29T05:09:12;91963.41;;;15.81;83.59
37206;BME280;23099;42.636;23.198;2023-07-29T05:11:39;91958.78;;;15.85;83.65
37206;BME280;23099;42.636;23.198;2023-07-29T05:14:06;91964.47;;;15.95;83.98
37206;BME280;23099;42.636;23.198;2023-07-29T05:16:34;91973.66;;;16.04;83.89
37206;BME280;23099;42.636;23.198;2023-07-29T05:19:01;91978.25;;;16.11;83.67
37206;BME280;23099;42.636;23.198;2023-07-29T05:21:27;91976.66;;;16.17;83.42
37206;BME280;23099;42.636;23.198;2023-07-29T05:23:55;91975.47;;;16.21;83.65
37206;BME280;23099;42.636;23.198;2023-07-29T05:26:22;91979.25;;;16.31;83.48
37206;BME280;23099;42.636;23.198;2023-07-29T05:28:49;91977.69;;;16.37;83.46
37206;BME280;23099;42.636;23.198;2023-07-29T05:31:15;91978.41;;;16.45;83.13
37206;BME280;23099;42.636;23.198;2023-07-29T05:33:42;91977.97;;;16.53;83.32
37206;BME280;23099;42.636;23.198;2023-07-29T05:36:09;91982.13;;;16.61;82.91
37206;BME280;23099;42.636;23.198;2023-07-29T05:38:35;91981.72;;;16.67;83.10
37206;BME280;23099;42.636;23.198;2023-07-29T05:41:03;91978.56;;;16.75;82.52
37206;BME280;23099;42.636;23.198;2023-07-29T05:43:47;91983.53;;;16.84;81.59
37206;BME280;23099;42.636;23.198;2023-07-29T05:46:14;91985.38;;;16.90;81.23
37206;BME280;23099;42.636;23.198;2023-07-29T05:48:41;91984.56;;;16.97;80.99
37206;BME280;23099;42.636;23.198;2023-07-29T05:51:07;91983.69;;;17.07;80.95
37206;BME280;23099;42.636;23.198;2023-07-29T05:53:34;91982.47;;;17.15;80.78
37206;BME280;23099;42.636;23.198;2023-07-29T05:56:01;91987.78;;;17.22;80.69
37206;BME280;23099;42.636;23.198;2023-07-29T05:58:29;91992.34;;;17.29;80.81
37206;BME280;23099;42.636;23.198;2023-07-29T06:00:56;91986.47;;;17.38;80.26
37206;BME280;23099;42.636;23.198;2023-07-29T06:03:23;91984.47;;;17.45;80.18
37206;BME280;23099;42.636;23.198;2023-07-29T06:05:50;91980.91;;;17.52;80.26
37206;BME280;23099;42.636;23.198;2023-07-29T06:08:16;91980.41;;;17.60;80.20
37206;BME280;23099;42.636;23.198;2023-07-29T06:10:43;91986.53;;;17.68;80.13
37206;BME280;23099;42.636;23.198;2023-07-29T06:13:09;91984.88;;;17.78;79.89
37206;BME280;23099;42.636;23.198;2023-07-29T06:15:37;91972.41;;;17.87;80.17
37206;BME280;23099;42.636;23.198;2023-07-29T06:18:04;91976.53;;;17.95;80.63
37206;BME280;23099;42.636;23.198;2023-07-29T06:20:31;91973.41;;;18.00;80.88
37206;BME280;23099;42.636;23.198;2023-07-29T06:22:57;91974.41;;;18.10;80.26
37206;BME280;23099;42.636;23.198;2023-07-29T06:25:24;91972.38;;;18.18;79.53
37206;BME280;23099;42.636;23.198;2023-07-29T06:27:51;91965.28;;;18.27;78.91
37206;BME280;23099;42.636;23.198;2023-07-29T06:30:17;91960.53;;;18.35;78.28
37206;BME280;23099;42.636;23.198;2023-07-29T06:32:45;91965.47;;;18.40;78.21
37206;BME280;23099;42.636;23.198;2023-07-29T06:35:12;91954.84;;;18.53;77.58
37206;BME280;23099;42.636;23.198;2023-07-29T06:37:39;91954.34;;;18.61;75.53
37206;BME280;23099;42.636;23.198;2023-07-29T06:40:06;91956.91;;;18.72;75.61
37206;BME280;23099;42.636;23.198;2023-07-29T06:42:33;91953.59;;;18.84;74.14
37206;BME280;23099;42.636;23.198;2023-07-29T06:45:00;91951.47;;;18.95;73.96
37206;BME280;23099;42.636;23.198;2023-07-29T06:47:26;91960.25;;;19.03;73.35
37206;BME280;23099;42.636;23.198;2023-07-29T06:49:55;91958.13;;;19.14;72.13
37206;BME280;23099;42.636;23.198;2023-07-29T06:52:21;91954.09;;;19.22;71.11
37206;BME280;23099;42.636;23.198;2023-07-29T06:54:48;91963.63;;;19.30;70.88
37206;BME280;23099;42.636;23.198;2023-07-29T06:57:15;91968.84;;;19.41;71.34
37206;BME280;23099;42.636;23.198;2023-07-29T06:59:41;91966.38;;;19.50;70.52
37206;BME280;23099;42.636;23.198;2023-07-29T07:02:08;91972.03;;;19.59;69.95
37206;BME280;23099;42.636;23.198;2023-07-29T07:04:35;91973.41;;;19.67;70.81
37206;BME280;23099;42.636;23.198;2023-07-29T07:07:03;91967.75;;;19.78;70.97
37206;BME280;23099;42.636;23.198;2023-07-29T07:09:30;91968.75;;;19.88;71.00
37206;BME280;23099;42.636;23.198;2023-07-29T07:11:57;91961.56;;;19.97;70.46
37206;BME280;23099;42.636;23.198;2023-07-29T07:14:23;91963.28;;;20.07;70.53
37206;BME280;23099;42.636;23.198;2023-07-29T07:16:51;91958.84;;;20.17;70.38
37206;BME280;23099;42.636;23.198;2023-07-29T07:19:17;91967.50;;;20.28;69.56
37206;BME280;23099;42.636;23.198;2023-07-29T07:21:44;91967.28;;;20.39;68.88
37206;BME280;23099;42.636;23.198;2023-07-29T07:24:12;91964.31;;;20.50;68.68
37206;BME280;23099;42.636;23.198;2023-07-29T07:26:39;91966.03;;;20.60;69.21
37206;BME280;23099;42.636;23.198;2023-07-29T07:29:05;91965.72;;;20.74;67.75
37206;BME280;23099;42.636;23.198;2023-07-29T07:31:33;91972.34;;;20.89;67.03
37206;BME280;23099;42.636;23.198;2023-07-29T07:34:00;91962.38;;;20.99;66.46
37206;BME280;23099;42.636;23.198;2023-07-29T07:36:28;91959.06;;;21.07;66.80
37206;BME280;23099;42.636;23.198;2023-07-29T07:38:55;91962.66;;;21.21;66.13
37206;BME280;23099;42.636;23.198;2023-07-29T07:41:23;91964.66;;;21.33;64.71
37206;BME280;23099;42.636;23.198;2023-07-29T07:43:50;91966.25;;;21.46;64.77
37206;BME280;23099;42.636;23.198;2023-07-29T07:46:17;91966.28;;;21.59;64.35
37206;BME280;23099;42.636;23.198;2023-07-29T07:48:43;91964.03;;;21.70;63.97
37206;BME280;23099;42.636;23.198;2023-07-29T07:51:10;91959.41;;;21.83;62.19
37206;BME280;23099;42.636;23.198;2023-07-29T07:53:37;91963.00;;;21.93;61.74
37206;BME280;23099;42.636;23.198;2023-07-29T07:56:05;91961.91;;;22.07;62.17
37206;BME280;23099;42.636;23.198;2023-07-29T07:58:33;91970.50;;;22.18;60.07
37206;BME280;23099;42.636;23.198;2023-07-29T08:01:03;91960.16;;;22.26;60.02
37206;BME280;23099;42.636;23.198;2023-07-29T08:03:30;91962.56;;;22.36;58.07
37206;BME280;23099;42.636;23.198;2023-07-29T08:05:57;91965.50;;;22.42;57.69
37206;BME280;23099;42.636;23.198;2023-07-29T08:08:25;91961.06;;;22.48;56.27
37206;BME280;23099;42.636;23.198;2023-07-29T08:10:52;91964.31;;;22.55;54.44
37206;BME280;23099;42.636;23.198;2023-07-29T08:13:19;91962.91;;;22.64;55.92
37206;BME280;23099;42.636;23.198;2023-07-29T08:15:48;91973.84;;;22.76;55.54
37206;BME280;23099;42.636;23.198;2023-07-29T08:18:15;91972.28;;;22.88;54.06
37206;BME280;23099;42.636;23.198;2023-07-29T08:20:44;91974.47;;;22.93;52.83
37206;BME280;23099;42.636;23.198;2023-07-29T08:23:17;91981.53;;;23.03;52.23
37206;BME280;23099;42.636;23.198;2023-07-29T08:25:44;91978.13;;;23.12;51.45
37206;BME280;23099;42.636;23.198;2023-07-29T08:28:10;91970.19;;;23.17;52.15
37206;BME280;23099;42.636;23.198;2023-07-29T08:30:37;91973.63;;;23.31;50.65
37206;BME280;23099;42.636;23.198;2023-07-29T08:33:05;91976.69;;;23.33;49.65
37206;BME280;23099;42.636;23.198;2023-07-29T08:35:32;91974.47;;;23.40;50.49
37206;BME280;23099;42.636;23.198;2023-07-29T08:37:58;91977.53;;;23.42;51.27
37206;BME280;23099;42.636;23.198;2023-07-29T08:40:27;91975.78;;;23.48;49.71
37206;BME280;23099;42.636;23.198;2023-07-29T08:42:56;91973.56;;;23.56;49.62
37206;BME280;23099;42.636;23.198;2023-07-29T08:45:25;91966.91;;;23.57;48.82
37206;BME280;23099;42.636;23.198;2023-07-29T08:47:54;91966.03;;;23.60;48.63
37206;BME280;23099;42.636;23.198;2023-07-29T08:50:25;91969.09;;;23.62;48.68
37206;BME280;23099;42.636;23.198;2023-07-29T08:52:52;91967.13;;;23.63;48.17
37206;BME280;23099;42.636;23.198;2023-07-29T08:55:21;91963.69;;;23.71;47.60
37206;BME280;23099;42.636;23.198;2023-07-29T08:57:48;91964.03;;;23.73;47.41
37206;BME280;23099;42.636;23.198;2023-07-29T09:00:15;91966.19;;;23.78;46.33
37206;BME280;23099;42.636;23.198;2023-07-29T09:02:41;91968.34;;;23.83;46.53
37206;BME280;23099;42.636;23.198;2023-07-29T09:05:08;91960.34;;;23.89;47.15
37206;BME280;23099;42.636;23.198;2023-07-29T09:07:36;91959.63;;;23.97;46.04
37206;BME280;23099;42.636;23.198;2023-07-29T09:10:08;91967.13;;;24.06;46.51
37206;BME280;23099;42.636;23.198;2023-07-29T09:12:35;91964.91;;;24.14;45.85
37206;BME280;23099;42.636;23.198;2023-07-29T09:15:02;91946.41;;;24.18;44.98
37206;BME280;23099;42.636;23.198;2023-07-29T09:17:31;91952.09;;;24.23;45.80
37206;BME280;23099;42.636;23.198;2023-07-29T09:19:58;91951.06;;;24.30;46.53
37206;BME280;23099;42.636;23.198;2023-07-29T09:22:26;91951.09;;;24.39;45.72
37206;BME280;23099;42.636;23.198;2023-07-29T09:24:57;91950.53;;;24.44;43.50
37206;BME280;23099;42.636;23.198;2023-07-29T09:27:24;91955.53;;;24.46;43.26
37206;BME280;23099;42.636;23.198;2023-07-29T09:29:52;91955.56;;;24.55;44.04
37206;BME280;23099;42.636;23.198;2023-07-29T09:32:19;91950.94;;;24.64;43.08
37206;BME280;23099;42.636;23.198;2023-07-29T09:34:46;91946.81;;;24.69;43.00
37206;BME280;23099;42.636;23.198;2023-07-29T09:37:17;91947.00;;;24.75;43.22
37206;BME280;23099;42.636;23.198;2023-07-29T09:39:45;91938.22;;;24.80;43.10
37206;BME280;23099;42.636;23.198;2023-07-29T09:42:17;91934.75;;;24.88;42.72
37206;BME280;23099;42.636;23.198;2023-07-29T09:44:43;91939.06;;;24.98;43.34
37206;BME280;23099;42.636;23.198;2023-07-29T09:47:19;91937.25;;;25.05;40.73
37206;BME280;23099;42.636;23.198;2023-07-29T09:49:45;91940.31;;;25.07;40.53
37206;BME280;23099;42.636;23.198;2023-07-29T09:52:14;91940.94;;;25.20;40.11
37206;BME280;23099;42.636;23.198;2023-07-29T09:54:42;91934.56;;;25.32;40.69
37206;BME280;23099;42.636;23.198;2023-07-29T09:57:09;91931.69;;;25.45;40.35
37206;BME280;23099;42.636;23.198;2023-07-29T09:59:37;91937.78;;;25.49;40.70
37206;BME280;23099;42.636;23.198;2023-07-29T10:02:03;91928.53;;;25.64;39.91
37206;BME280;23099;42.636;23.198;2023-07-29T10:04:31;91925.16;;;25.69;38.73
37206;BME280;23099;42.636;23.198;2023-07-29T10:06:58;91927.00;;;25.82;38.15
37206;BME280;23099;42.636;23.198;2023-07-29T10:09:26;91924.56;;;25.93;38.79
37206;BME280;23099;42.636;23.198;2023-07-29T10:11:53;91926.50;;;26.11;38.52
37206;BME280;23099;42.636;23.198;2023-07-29T10:14:20;91913.66;;;26.26;38.14
37206;BME280;23099;42.636;23.198;2023-07-29T10:16:50;91914.88;;;26.43;38.38
37206;BME280;23099;42.636;23.198;2023-07-29T10:19:18;91914.19;;;26.57;38.28
37206;BME280;23099;42.636;23.198;2023-07-29T10:21:47;91905.78;;;26.70;37.21
37206;BME280;23099;42.636;23.198;2023-07-29T10:24:16;91901.31;;;26.82;34.71
37206;BME280;23099;42.636;23.198;2023-07-29T10:26:46;91905.84;;;26.94;37.00
37206;BME280;23099;42.636;23.198;2023-07-29T10:29:13;91892.50;;;27.10;39.54
37206;BME280;23099;42.636;23.198;2023-07-29T10:31:43;91897.56;;;27.27;36.36
37206;BME280;23099;42.636;23.198;2023-07-29T10:34:11;91900.47;;;27.47;35.28
37206;BME280;23099;42.636;23.198;2023-07-29T10:36:39;91893.53;;;27.75;34.30
37206;BME280;23099;42.636;23.198;2023-07-29T10:39:06;91896.31;;;27.90;34.55
37206;BME280;23099;42.636;23.198;2023-07-29T10:41:54;91895.00;;;28.00;33.99
37206;BME280;23099;42.636;23.198;2023-07-29T10:44:47;91889.03;;;28.16;33.69
37206;BME280;23099;42.636;23.198;2023-07-29T10:47:15;91884.78;;;28.45;34.54
37206;BME280;23099;42.636;23.198;2023-07-29T10:49:44;91882.38;;;28.67;33.49
37206;BME280;23099;42.636;23.198;2023-07-29T10:52:13;91885.84;;;28.97;33.08
37206;BME280;23099;42.636;23.198;2023-07-29T10:54:44;91867.97;;;29.07;32.03
37206;BME280;23099;42.636;23.198;2023-07-29T10:57:14;91877.81;;;29.34;35.54
37206;BME280;23099;42.636;23.198;2023-07-29T10:59:53;91881.00;;;29.68;33.18
37206;BME280;23099;42.636;23.198;2023-07-29T11:02:21;91885.38;;;29.80;31.52
37206;BME280;23099;42.636;23.198;2023-07-29T11:04:50;91881.22;;;29.90;29.86
37206;BME280;23099;42.636;23.198;2023-07-29T11:07:21;91873.53;;;30.20;30.11
37206;BME280;23099;42.636;23.198;2023-07-29T11:09:57;91877.53;;;30.19;31.67
37206;BME280;23099;42.636;23.198;2023-07-29T11:12:43;91866.78;;;30.52;29.63
37206;BME280;23099;42.636;23.198;2023-07-29T11:15:19;91877.50;;;30.71;31.70
37206;BME280;23099;42.636;23.198;2023-07-29T11:17:48;91876.81;;;30.81;29.19
37206;BME280;23099;42.636;23.198;2023-07-29T11:20:18;91872.84;;;30.88;28.59
37206;BME280;23099;42.636;23.198;2023-07-29T11:22:45;91883.44;;;30.95;27.39
37206;BME280;23099;42.636;23.198;2023-07-29T11:25:13;91871.75;;;31.11;28.97
37206;BME280;23099;42.636;23.198;2023-07-29T11:27:40;91870.13;;;31.31;28.12
37206;BME280;23099;42.636;23.198;2023-07-29T11:30:08;91872.22;;;31.52;26.50
37206;BME280;23099;42.636;23.198;2023-07-29T11:32:36;91867.69;;;31.55;28.49
37206;BME280;23099;42.636;23.198;2023-07-29T11:35:05;91867.53;;;31.75;26.20
37206;BME280;23099;42.636;23.198;2023-07-29T11:37:34;91865.06;;;31.83;27.31
37206;BME280;23099;42.636;23.198;2023-07-29T11:40:01;91859.53;;;31.83;26.90
37206;BME280;23099;42.636;23.198;2023-07-29T11:42:31;91854.53;;;31.87;26.45
37206;BME280;23099;42.636;23.198;2023-07-29T11:44:58;91853.28;;;31.99;25.16
37206;BME280;23099;42.636;23.198;2023-07-29T11:47:24;91856.31;;;32.12;25.78
37206;BME280;23099;42.636;23.198;2023-07-29T11:49:51;91846.78;;;32.19;26.12
37206;BME280;23099;42.636;23.198;2023-07-29T11:52:18;91852.34;;;32.24;25.19
37206;BME280;23099;42.636;23.198;2023-07-29T11:54:48;91850.84;;;32.35;25.28
37206;BME280;23099;42.636;23.198;2023-07-29T11:57:15;91854.09;;;32.33;25.91
37206;BME280;23099;42.636;23.198;2023-07-29T11:59:42;91852.09;;;32.50;24.92
37206;BME280;23099;42.636;23.198;2023-07-29T12:02:11;91852.59;;;32.54;25.64
37206;BME280;23099;42.636;23.198;2023-07-29T12:04:39;91842.81;;;32.42;24.39
37206;BME280;23099;42.636;23.198;2023-07-29T12:07:06;91840.25;;;32.61;25.46
37206;BME280;23099;42.636;23.198;2023-07-29T12:09:33;91828.44;;;32.66;24.86
37206;BME280;23099;42.636;23.198;2023-07-29T12:12:02;91840.53;;;32.85;24.21
37206;BME280;23099;42.636;23.198;2023-07-29T12:14:29;91831.72;;;32.81;24.01
37206;BME280;23099;42.636;23.198;2023-07-29T12:16:55;91835.25;;;32.82;25.42
37206;BME280;23099;42.636;23.198;2023-07-29T12:19:22;91831.22;;;32.83;24.52
37206;BME280;23099;42.636;23.198;2023-07-29T12:21:50;91837.28;;;32.81;23.95
37206;BME280;23099;42.636;23.198;2023-07-29T12:24:17;91830.72;;;32.62;24.08
37206;BME280;23099;42.636;23.198;2023-07-29T12:26:44;91829.47;;;32.35;23.96
37206;BME280;23099;42.636;23.198;2023-07-29T12:29:17;91830.22;;;32.30;24.13
37206;BME280;23099;42.636;23.198;2023-07-29T12:31:45;91830.16;;;32.08;24.85
37206;BME280;23099;42.636;23.198;2023-07-29T12:34:17;91824.59;;;31.91;26.05
37206;BME280;23099;42.636;23.198;2023-07-29T12:36:46;91828.16;;;31.97;25.28
37206;BME280;23099;42.636;23.198;2023-07-29T12:39:17;91829.69;;;32.15;25.56
37206;BME280;23099;42.636;23.198;2023-07-29T12:41:44;91829.41;;;32.18;25.31
37206;BME280;23099;42.636;23.198;2023-07-29T12:44:11;91829.16;;;32.05;23.94
37206;BME280;23099;42.636;23.198;2023-07-29T12:46:39;91821.59;;;31.83;23.48
37206;BME280;23099;42.636;23.198;2023-07-29T12:49:06;91826.59;;;31.79;24.99
37206;BME280;23099;42.636;23.198;2023-07-29T12:51:33;91838.63;;;31.65;25.19
37206;BME280;23099;42.636;23.198;2023-07-29T12:54:00;91831.00;;;31.43;24.12